Angus, New Mexico
Current Conditions -  °F | °C
As of 1:55 AM on Wednesday 26 Nov 2014 (Local Time) from KSRR Reporting Station
Clear Clear  
Wind Chill:   Ceiling: Unl
Heat Index:   Visibility: 10mi
Dew Point: -10°   Wind: 14mph
Humidity: 33%   Direction: 310°NW
Pressure: 30.28"   Gusts: 32mph
Location:  33.7233°N, 105.25°W
Report Text: KSRR 260855Z AUTO 31012G28KT 10SM CLR 05/M10 A3028 RMK AO2
Loading
Personal Weather Stations






























Interactive Weather Map New forecast layout! Learn more

10-Day Weather Forecast

Advertisements
Track Severe Weather on mobile